Van Nuys, CA (91499)

3:16 PM PDT on September 01, 2014 (GMT -0700)
Valley Glen - Hacienda | Change Station
CLOSE
Current Station
Personal Weather Station
Location: Los Angeles, CA
Elevation: 709 ft
Nearby Weather Stations

Elev 709 ft 34.18 °N, 118.42 °W | Updated 2 seconds ago

Clear
Clear
89.8 °F
Feels Like 89 °F
N
5.0
Wind Variable Wind from SSE
Gusts 10.0 mph

Today
High -- | Low -- °F
--% Chance of Precip.
Yesterday
High -- | Low -- °F
Precip. -- in
6:27 AM 7:19 PM
Waxing Crescent, 44% visible
Pressure 29.75 in
Visibility 10.0 miles
Clouds Clear
Heat Index 89 °F
Dew Point 58 °F
Humidity 35%
Rainfall 0.00 in
Snow Depth Not available.
UV 8 out of 12
Pollen 7.80 out of 12
Ozone Good
PM2.5 Moderate
Flu Activity Not available.
METAR KVNY 012151Z 17011G16KT 10SM CLR 34/07 A2979 RMK AO2 SLP075 T03390067

More Conditions Fewer Conditions

Pressure 29.75 in
Visibility 10.0 miles
Clouds Clear
Heat Index 89 °F
Dew Point 58 °F
Humidity 35%
Rainfall 0.00 in
Snow Depth Not available.
UV 8 out of 12
Pollen 7.80 out of 12
Ozone Good
PM2.5 Moderate
Flu Activity Not available.
METAR KVNY 012151Z 17011G16KT 10SM CLR 34/07 A2979 RMK AO2 SLP075 T03390067

More Conditions Fewer Conditions

10-Day Weather Forecast

Almanac

Astronomy

Sep. 01, 2014 Rise Set
Actual Time 6:27 AM PDT 7:19 PM PDT
Civil Twilight 6:01 AM PDT 7:45 PM PDT
Nautical Twilight 5:31 AM PDT 8:15 PM PDT
Astronomical Twilight 5:00 AM PDT 8:46 PM PDT
Moon 12:59 PM PDT 11:43 PM PDT
Length of Visible Light 13h 43m
Length of Day
12h 52m
Tomorrow will be 2m 3s shorter.
Waxing Crescent, 44% of the Moon is Illuminated
Today
Waxing Crescent
Sep 2
First Quarter
Sep 8
Full
Sep 15
Last Quarter
Sep 24
New

Today's Extremes

State Highs State Lows

Community

WunderPhotos

Upload Photos

1,749,420 photos uploaded!

Nearby

Air Quality

  Air Quality AQ Index Pollutant
Yesterday Unhealthy for Sensitive Groups
OZONE
Yesterday Moderate
PM2.5
Current Moderate
PM2.5
Current Good
OZONE
Tuesday Moderate
OZONE
Tuesday Good
PM10
Tuesday Good
CO
Tuesday Good
NO2

Snow Depth

Station Depth Elevation
Leavitt Meadows 0 in 7200 ft
CSS Lab 1 in 6900 ft
Adin Mountain 0 in 6200 ft

Earthquake Activity

City Distance Mag. Time & Date
Malibu, California 49 miles 2.5 8:11 AM PDT
2014-08-30
Minimum magnitude displayed is 2.5.

Coastal Water Temperatures

Place Temperature
Santa Monica Pier 73.0 °F
Los Angeles, CA 71.1 °F
La Jolla, CA 71.1 °F

Nearby Weather Stations